WSSL/XSP METAR and TAF weather

Enter ICAO airport designator
Station Type Date Time Source
WSSL METAR 2019/08/22 04:40 UTC NOAA

WSSL 220440Z 18010KT 130V230 9999 SCT020TCU BKN300 34/23 Q1011


Station Type Date Time Source
WSSL Decoded METAR 2019/08/22 04:40 UTC NOAA

Station name not available
Aug 22, 2019 - 12:40 AM EDT / 2019.08.22 0440 UTC
Wind: from the S (180 degrees) at 12 MPH (10 KT) (direction variable):0
Visibility: greater than 7 mile(s):0
Sky conditions: mostly cloudy
Weather: Towering cumulus clouds observed
Temperature: 93 F (34 C)
Heat index: 101.8 F (38.8 C):1
Dew Point: 73 F (23 C)
Relative Humidity: 52%
Pressure (altimeter): 29.85 in. Hg (1011 hPa)
ob: WSSL 220440Z 18010KT 130V230 9999 SCT020TCU BKN300 34/23 Q1011
cycle: 4

Station Type Date Time Source
WSSL TAF 2019/08/21 18:00 UTC NOAA

TAF WSSL 211700Z 2118/2300 16010KT 9999 FEW015 SCT020
TEMPO 2205/2208 4000 TSRA FEW012CB BKN015

Example: see airport list